Crane — ZR3519 — position and weather

sailwx.info

Track history (hours):
 
Tides and Currents Weather Stations Pressure Air Temp Water Temp Dewpoint Dewpoint Depression Visibility Wind Speed Wind Dir Waves Ship Positions

Crane

Last reported at 2016-May-08 09:26 UTC. Time now 2016-May-24 13:52 UTC.
Position S 29°52' E 031°01'.
Warning: this ship's position is 16 days out of date.

MMSI: 601085000.

Date/timePositionNaut miles runAvg speedWind from/ knotsBaromVisibWave heightAir tempDewpointWater temp
2016-May-08 09:26S 29°52' E 031°01'2 2.1
2016-May-08 08:34S 29°53' E 031°03'3 2.7
2016-May-08 07:34S 29°52' E 031°06'4 4.1
2016-May-08 06:33S 29°52' E 031°01'2 1.7
2016-May-08 05:34S 29°53' E 030°60'0 0.0
2016-May-07 16:10S 29°53' E 031°00'1 1.3
2016-May-07 15:33S 29°52' E 031°01'3 3.3
2016-May-07 14:33S 29°52' E 031°04'1 0.8
2016-May-07 13:33S 29°52' E 031°04'3 3.4
2016-May-07 12:33S 29°53' E 030°60'0 0.0
2016-May-07 11:33S 29°53' E 030°60'0 0.0
2016-May-07 10:33S 29°53' E 030°60'0 0.0
2016-May-07 09:33S 29°53' E 030°60'0 0.0
2016-May-07 08:33S 29°53' E 030°60'0 0.0
2016-May-07 07:33S 29°53' E 030°60'0 0.0
2016-May-07 06:33S 29°53' E 030°60'0 0.0
2016-May-07 05:33S 29°53' E 030°60'0 0.0
2016-May-07 04:33S 29°53' E 030°60'0 0.0
2016-May-07 03:33S 29°53' E 030°60'0 0.0
2016-May-07 02:33S 29°53' E 030°60'6 2.8
2016-May-07 00:33S 29°53' E 031°06'5 4.6
2016-May-06 23:33S 29°52' E 031°01'1 0.1
2016-May-06 11:34S 29°53' E 031°00'4 3.5
2016-May-06 10:34S 29°52' E 031°04'2 1.6
2016-May-06 09:34S 29°53' E 031°06'4 4.1
2016-May-06 08:34S 29°52' E 031°01'1 0.6
2016-May-06 07:34S 29°53' E 031°00'1 0.0
2016-May-05 07:07S 29°52' E 031°01'1 1.7
2016-May-05 06:33S 29°52' E 031°02'4 3.9
2016-May-05 05:33S 29°53' E 031°06'5 0.2
2016-May-04 09:29S 29°52' E 031°01'5 5.6
2016-May-04 08:33S 29°53' E 031°07'3 3.0
2016-May-04 07:33S 29°52' E 031°04'  
Track history (hours):
 
Tides and Currents Weather Stations Pressure Air Temp Water Temp Dewpoint Dewpoint Depression Visibility Wind Speed Wind Dir Waves Ship Positions

Crane

Last reported at 2016-May-08 09:26 UTC. Time now 2016-May-24 13:52 UTC.
Position S 29°52' E 031°01'.
Warning: this ship's position is 16 days out of date.

MMSI: 601085000.

Date/timePositionNaut miles runAvg speedWind from/ knotsBaromVisibWave heightAir tempDewpointWater temp
2016-May-08 09:26S 29°52' E 031°01'2 2.1
2016-May-08 08:34S 29°53' E 031°03'3 2.7
2016-May-08 07:34S 29°52' E 031°06'4 4.1
2016-May-08 06:33S 29°52' E 031°01'2 1.7
2016-May-08 05:34S 29°53' E 030°60'0 0.0
2016-May-07 16:10S 29°53' E 031°00'1 1.3
2016-May-07 15:33S 29°52' E 031°01'3 3.3
2016-May-07 14:33S 29°52' E 031°04'1 0.8
2016-May-07 13:33S 29°52' E 031°04'3 3.4
2016-May-07 12:33S 29°53' E 030°60'0 0.0
2016-May-07 11:33S 29°53' E 030°60'0 0.0
2016-May-07 10:33S 29°53' E 030°60'0 0.0
2016-May-07 09:33S 29°53' E 030°60'0 0.0
2016-May-07 08:33S 29°53' E 030°60'0 0.0
2016-May-07 07:33S 29°53' E 030°60'0 0.0
2016-May-07 06:33S 29°53' E 030°60'0 0.0
2016-May-07 05:33S 29°53' E 030°60'0 0.0
2016-May-07 04:33S 29°53' E 030°60'0 0.0
2016-May-07 03:33S 29°53' E 030°60'0 0.0
2016-May-07 02:33S 29°53' E 030°60'6 2.8
2016-May-07 00:33S 29°53' E 031°06'5 4.6
2016-May-06 23:33S 29°52' E 031°01'1 0.1
2016-May-06 11:34S 29°53' E 031°00'4 3.5
2016-May-06 10:34S 29°52' E 031°04'2 1.6
2016-May-06 09:34S 29°53' E 031°06'4 4.1
2016-May-06 08:34S 29°52' E 031°01'1 0.6
2016-May-06 07:34S 29°53' E 031°00'1 0.0
2016-May-05 07:07S 29°52' E 031°01'1 1.7
2016-May-05 06:33S 29°52' E 031°02'4 3.9
2016-May-05 05:33S 29°53' E 031°06'5 0.2
2016-May-04 09:29S 29°52' E 031°01'5 5.6
2016-May-04 08:33S 29°53' E 031°07'3 3.0
2016-May-04 07:33S 29°52' E 031°04'  

Dump ship's entire track history